الصفحة الرئيسية
METAR-TAF:

METAR-TAF

مطار :

Georgetown, جزيرة أسينشين

دائرة عرض: 07-58S, خط طول: 014-24W, ارتفاع: 86 متر

مراقبة الطقس الحالي

تاريخ ووقت الإصدار 2ساعات و 24 دقيقة قبل الساعة 08:50UTC
ريح 12 عقدة من الجنوب الشرقي
درجة الحرارة 26°درجة مئوية
الرطوبة 79%
ضغط 1014 hPa
الرؤية 10 كم أو أكثر
غيوم قليلة على ارتفاع 1400 قدم

METAR: FHAW 170850Z 13012KT 9999 FEW014 26/22 Q1014 BLU

زمن: 11:14 (11:14 UTC)


TAF: مفقودة

أرصاد الطقس والتوقعات من أكثر من 4000 مطار (تقارير الطقس للمطار METAR والتنبؤ بالطقس بالمطارTAF).

المحطات المتاحة هي النقط الصفراء والحمراء على الخريطة.

حرك المؤشر فوق النقطة لمعرفة اسم المحطة.

ثم انقر لمعرفة أرصاد وتوقعات الطقس.

لتغيير الخارطة: اضغط على الأزرار الخضراء مع رمز الصليب الأسود للتكبير. على الزر الأخضر مع شرطة للتصغير، أو على الأسهم الخضراء للخرائط المجاورة.


METAR-TAF: